Time,TemperatureF,DewpointF,PressureIn,WindDirection,WindDirectionDegrees,WindSpeedMPH,WindSpeedGustMPH,Humidity,HourlyPrecipIn,Conditions,Clouds,dailyrainin,SoftwareType,DateUTC
2013-10-04 00:32:00,67.0,66.0,30.09,East,100,0.0,0.0,97,0.00,,,0.00,,2013-10-04 05:32:00,
2013-10-04 00:59:00,67.0,66.0,30.09,East,101,0.0,0.0,97,0.00,,,0.00,,2013-10-04 05:59:00,
2013-10-04 01:27:00,67.0,66.0,30.09,East,101,0.0,0.0,97,0.00,,,0.00,,2013-10-04 06:27:00,
2013-10-04 01:58:00,67.0,66.0,30.09,East,101,0.0,0.0,97,0.00,,,0.00,,2013-10-04 06:58:00,
2013-10-04 02:27:00,67.0,66.0,30.08,East,100,0.0,0.0,98,0.00,,,0.00,,2013-10-04 07:27:00,
2013-10-04 02:58:00,67.0,66.0,30.08,East,101,0.0,0.0,98,0.00,,,0.00,,2013-10-04 07:58:00,
2013-10-04 03:27:00,67.0,66.0,30.07,East,100,0.0,0.0,98,0.00,,,0.00,,2013-10-04 08:27:00,
2013-10-04 03:58:00,66.0,65.0,30.07,East,100,0.0,0.0,98,0.00,,,0.00,,2013-10-04 08:58:00,
2013-10-04 04:27:00,66.0,65.0,30.07,East,100,0.0,0.0,98,0.00,,,0.00,,2013-10-04 09:27:00,
2013-10-04 05:01:00,65.0,64.0,30.08,East,100,0.0,0.0,98,0.00,,,0.00,,2013-10-04 10:01:00,
2013-10-04 05:30:00,65.0,64.0,30.09,East,96,0.0,1.0,98,0.00,,,0.00,,2013-10-04 10:30:00,
2013-10-04 06:01:00,64.0,63.0,30.09,East,96,0.0,0.0,98,0.00,,,0.00,,2013-10-04 11:01:00,
2013-10-04 06:29:00,64.0,63.0,30.10,East,96,0.0,0.0,98,0.00,,,0.00,,2013-10-04 11:29:00,
2013-10-04 07:00:00,64.0,63.0,30.11,East,96,0.0,0.0,98,0.00,,,0.00,,2013-10-04 12:00:00,
2013-10-04 07:29:00,65.0,65.0,30.12,East,96,0.0,0.0,99,0.00,,,0.00,,2013-10-04 12:29:00,
2013-10-04 08:00:00,69.0,69.0,30.13,ESE,104,0.0,0.0,99,0.01,,,0.01,,2013-10-04 13:00:00,
2013-10-04 08:29:00,71.0,70.0,30.13,ENE,72,0.0,1.0,97,0.01,,,0.01,,2013-10-04 13:29:00,
2013-10-04 09:00:00,75.0,73.0,30.13,WNW,302,0.0,1.0,93,0.00,,,0.01,,2013-10-04 14:00:00,
2013-10-04 10:00:00,79.0,73.0,30.14,WSW,255,0.0,6.0,83,0.00,,,0.01,,2013-10-04 15:00:00,
2013-10-04 10:29:00,80.0,72.0,30.14,WSW,257,2.0,4.0,77,0.00,,,0.01,,2013-10-04 15:29:00,
2013-10-04 10:49:00,81.0,72.0,30.14,SSE,148,1.0,4.0,75,0.00,,,0.01,,2013-10-04 15:49:00,
2013-10-04 11:01:00,82.0,71.0,30.14,ENE,63,3.0,6.0,70,0.00,,,0.01,,2013-10-04 16:01:00,
2013-10-04 11:29:00,82.0,71.0,30.14,West,277,1.0,2.0,70,0.00,,,0.01,,2013-10-04 16:29:00,
2013-10-04 12:01:00,84.0,72.0,30.13,SW,236,1.0,4.0,68,0.00,,,0.01,,2013-10-04 17:01:00,
2013-10-04 12:30:00,84.0,70.0,30.12,WNW,295,2.0,5.0,63,0.00,,,0.01,,2013-10-04 17:30:00,
2013-10-04 13:03:00,83.0,69.0,30.11,West,270,1.0,2.0,62,0.00,,,0.01,,2013-10-04 18:03:00,
2013-10-04 13:22:00,85.0,70.0,30.10,West,264,2.0,4.0,61,0.00,,,0.01,,2013-10-04 18:22:00,
2013-10-04 13:31:00,85.0,70.0,30.09,ENE,69,2.0,5.0,60,0.00,,,0.01,,2013-10-04 18:31:00,
2013-10-04 13:50:00,84.0,70.0,30.08,NE,52,1.0,2.0,64,0.00,,,0.01,,2013-10-04 18:50:00,
2013-10-04 13:56:00,85.0,69.0,30.08,NE,56,2.0,5.0,58,0.00,,,0.01,,2013-10-04 18:56:00,
2013-10-04 14:12:00,86.0,69.0,30.07,SE,133,0.0,4.0,58,0.00,,,0.01,,2013-10-04 19:12:00,
2013-10-04 14:22:00,87.0,70.0,30.07,North,9,2.0,3.0,57,0.00,,,0.01,,2013-10-04 19:22:00,
2013-10-04 14:52:00,85.0,68.0,30.06,East,90,2.0,6.0,57,0.00,,,0.01,,2013-10-04 19:52:00,
2013-10-04 15:22:00,86.0,68.0,30.06,NE,41,1.0,4.0,55,0.00,,,0.01,,2013-10-04 20:22:00,
2013-10-04 15:53:00,87.0,69.0,30.05,NE,44,1.0,3.0,56,0.00,,,0.01,,2013-10-04 20:53:00,
2013-10-04 16:22:00,84.0,70.0,30.05,ESE,120,0.0,0.0,63,0.00,,,0.01,,2013-10-04 21:22:00,
2013-10-04 16:54:00,84.0,70.0,30.05,NE,44,1.0,3.0,62,0.00,,,0.01,,2013-10-04 21:54:00,
2013-10-04 17:23:00,82.0,72.0,30.06,ENE,74,0.0,0.0,71,0.00,,,0.01,,2013-10-04 22:23:00,
2013-10-04 17:52:00,79.0,72.0,30.06,East,90,0.0,1.0,79,0.00,,,0.01,,2013-10-04 22:52:00,
2013-10-04 18:22:00,77.0,72.0,30.06,East,90,0.0,0.0,84,0.00,,,0.01,,2013-10-04 23:22:00,
2013-10-04 18:53:00,75.0,72.0,30.07,East,91,0.0,0.0,89,0.00,,,0.01,,2013-10-04 23:53:00,
2013-10-04 19:12:00,74.0,71.0,30.07,East,91,0.0,0.0,90,0.00,,,0.01,,2013-10-05 00:12:00,
2013-10-04 19:23:00,74.0,71.0,30.08,East,90,0.0,0.0,91,0.00,,,0.01,,2013-10-05 00:23:00,
2013-10-04 19:42:00,73.0,71.0,30.08,East,91,0.0,0.0,92,0.00,,,0.01,,2013-10-05 00:42:00,
2013-10-04 19:53:00,72.0,70.0,30.09,East,91,0.0,0.0,93,0.00,,,0.01,,2013-10-05 00:53:00,
2013-10-04 20:22:00,71.0,69.0,30.09,East,90,0.0,0.0,94,0.00,,,0.01,,2013-10-05 01:22:00,
2013-10-04 20:43:00,71.0,69.0,30.09,East,91,0.0,0.0,94,0.00,,,0.01,,2013-10-05 01:43:00,
2013-10-04 20:52:00,70.0,68.0,30.10,East,91,0.0,0.0,95,0.00,,,0.01,,2013-10-05 01:52:00,
2013-10-04 21:22:00,70.0,68.0,30.10,East,91,0.0,0.0,95,0.00,,,0.01,,2013-10-05 02:22:00,
2013-10-04 21:52:00,69.0,68.0,30.11,East,91,0.0,0.0,96,0.00,,,0.01,,2013-10-05 02:52:00,
2013-10-04 22:23:00,69.0,68.0,30.11,East,91,0.0,0.0,96,0.00,,,0.01,,2013-10-05 03:23:00,
2013-10-04 22:55:00,68.0,67.0,30.11,East,91,0.0,1.0,96,0.00,,,0.01,,2013-10-05 03:55:00,
2013-10-04 23:24:00,67.0,66.0,30.11,East,90,0.0,0.0,97,0.00,,,0.01,,2013-10-05 04:24:00,
2013-10-04 23:54:00,67.0,66.0,30.10,East,90,0.0,0.0,97,0.00,,,0.01,,2013-10-05 04:54:00,